sensor_id;sensor_type;location;lat;lon;timestamp;pressure;altitude;pressure_sealevel;temperature;humidity
48053;BME280;33824;51.600;5.718;2023-03-16T00:00:38;101660.22;;;5.39;71.55
48053;BME280;33824;51.600;5.718;2023-03-16T00:03:17;101644.34;;;5.39;71.91
48053;BME280;33824;51.600;5.718;2023-03-16T00:05:50;101639.16;;;5.38;72.00
48053;BME280;33824;51.600;5.718;2023-03-16T00:08:17;101642.41;;;5.41;72.23
48053;BME280;33824;51.600;5.718;2023-03-16T00:10:43;101630.75;;;5.44;72.17
48053;BME280;33824;51.600;5.718;2023-03-16T00:13:13;101630.88;;;5.42;72.58
48053;BME280;33824;51.600;5.718;2023-03-16T00:15:39;101619.19;;;5.45;72.54
48053;BME280;33824;51.600;5.718;2023-03-16T00:18:05;101623.53;;;5.46;72.12
48053;BME280;33824;51.600;5.718;2023-03-16T00:20:31;101636.50;;;5.49;72.66
48053;BME280;33824;51.600;5.718;2023-03-16T00:22:58;101638.19;;;5.50;72.49
48053;BME280;33824;51.600;5.718;2023-03-16T00:25:23;101638.09;;;5.51;72.85
48053;BME280;33824;51.600;5.718;2023-03-16T00:27:49;101636.25;;;5.52;73.04
48053;BME280;33824;51.600;5.718;2023-03-16T00:30:15;101624.59;;;5.54;73.04
48053;BME280;33824;51.600;5.718;2023-03-16T00:32:41;101622.66;;;5.56;72.72
48053;BME280;33824;51.600;5.718;2023-03-16T00:35:06;101619.91;;;5.58;72.77
48053;BME280;33824;51.600;5.718;2023-03-16T00:37:32;101616.41;;;5.57;73.01
48053;BME280;33824;51.600;5.718;2023-03-16T00:39:58;101614.72;;;5.56;73.22
48053;BME280;33824;51.600;5.718;2023-03-16T00:42:26;101619.16;;;5.56;73.40
48053;BME280;33824;51.600;5.718;2023-03-16T00:44:56;101612.09;;;5.56;73.35
48053;BME280;33824;51.600;5.718;2023-03-16T00:47:27;101608.59;;;5.56;73.47
48053;BME280;33824;51.600;5.718;2023-03-16T00:49:57;101610.75;;;5.62;72.89
48053;BME280;33824;51.600;5.718;2023-03-16T00:52:23;101600.19;;;5.62;73.24
48053;BME280;33824;51.600;5.718;2023-03-16T00:54:49;101597.38;;;5.63;73.24
48053;BME280;33824;51.600;5.718;2023-03-16T00:57:20;101601.97;;;5.61;73.31
48053;BME280;33824;51.600;5.718;2023-03-16T00:59:47;101589.59;;;5.62;73.49
48053;BME280;33824;51.600;5.718;2023-03-16T01:02:14;101583.22;;;5.64;73.11
48053;BME280;33824;51.600;5.718;2023-03-16T01:04:41;101580.31;;;5.67;73.06
48053;BME280;33824;51.600;5.718;2023-03-16T01:07:09;101580.19;;;5.69;73.71
48053;BME280;33824;51.600;5.718;2023-03-16T01:09:37;101576.69;;;5.68;73.67
48053;BME280;33824;51.600;5.718;2023-03-16T01:12:05;101582.09;;;5.67;73.34
48053;BME280;33824;51.600;5.718;2023-03-16T01:14:32;101576.97;;;5.65;73.64
48053;BME280;33824;51.600;5.718;2023-03-16T01:17:00;101568.75;;;5.68;73.38
48053;BME280;33824;51.600;5.718;2023-03-16T01:19:26;101547.84;;;5.65;73.66
48053;BME280;33824;51.600;5.718;2023-03-16T01:21:52;101553.72;;;5.69;73.60
48053;BME280;33824;51.600;5.718;2023-03-16T01:24:17;101551.59;;;5.63;73.58
48053;BME280;33824;51.600;5.718;2023-03-16T01:26:43;101546.16;;;5.64;73.66
48053;BME280;33824;51.600;5.718;2023-03-16T01:29:09;101549.75;;;5.63;73.74
48053;BME280;33824;51.600;5.718;2023-03-16T01:31:37;101551.59;;;5.63;74.11
48053;BME280;33824;51.600;5.718;2023-03-16T01:34:02;101553.50;;;5.61;74.06
48053;BME280;33824;51.600;5.718;2023-03-16T01:36:29;101541.25;;;5.60;73.86
48053;BME280;33824;51.600;5.718;2023-03-16T01:38:55;101538.59;;;5.60;74.02
48053;BME280;33824;51.600;5.718;2023-03-16T01:41:21;101533.44;;;5.58;74.26
48053;BME280;33824;51.600;5.718;2023-03-16T01:43:47;101531.06;;;5.55;74.26
48053;BME280;33824;51.600;5.718;2023-03-16T01:46:19;101528.63;;;5.52;74.54
48053;BME280;33824;51.600;5.718;2023-03-16T01:51:40;101525.41;;;5.49;74.51
48053;BME280;33824;51.600;5.718;2023-03-16T01:59:21;101526.00;;;5.52;74.50
48053;BME280;33824;51.600;5.718;2023-03-16T02:01:49;101517.09;;;5.53;74.48
48053;BME280;33824;51.600;5.718;2023-03-16T02:04:25;101507.88;;;5.48;74.84
48053;BME280;33824;51.600;5.718;2023-03-16T02:06:56;101522.28;;;5.55;74.96
48053;BME280;33824;51.600;5.718;2023-03-16T02:09:23;101513.34;;;5.56;74.82
48053;BME280;33824;51.600;5.718;2023-03-16T02:11:50;101511.44;;;5.58;75.06
48053;BME280;33824;51.600;5.718;2023-03-16T02:14:17;101513.94;;;5.59;74.62
48053;BME280;33824;51.600;5.718;2023-03-16T02:16:43;101500.50;;;5.62;75.03
48053;BME280;33824;51.600;5.718;2023-03-16T02:19:15;101482.34;;;5.58;74.49
48053;BME280;33824;51.600;5.718;2023-03-16T02:21:54;101497.84;;;5.62;75.00
48053;BME280;33824;51.600;5.718;2023-03-16T02:24:21;101497.59;;;5.65;74.30
48053;BME280;33824;51.600;5.718;2023-03-16T02:27:08;101486.09;;;5.55;74.73
48053;BME280;33824;51.600;5.718;2023-03-16T02:32:26;101487.84;;;5.66;74.46
48053;BME280;33824;51.600;5.718;2023-03-16T02:34:54;101480.59;;;5.68;74.94
48053;BME280;33824;51.600;5.718;2023-03-16T02:37:21;101476.16;;;5.68;74.67
48053;BME280;33824;51.600;5.718;2023-03-16T02:39:46;101484.69;;;5.72;74.60
48053;BME280;33824;51.600;5.718;2023-03-16T02:42:15;101489.84;;;5.73;74.42
48053;BME280;33824;51.600;5.718;2023-03-16T02:44:45;101500.44;;;5.73;74.17
48053;BME280;33824;51.600;5.718;2023-03-16T02:47:22;101496.22;;;5.71;74.10
48053;BME280;33824;51.600;5.718;2023-03-16T02:49:48;101499.06;;;5.79;74.53
48053;BME280;33824;51.600;5.718;2023-03-16T02:52:14;101500.28;;;5.75;74.09
48053;BME280;33824;51.600;5.718;2023-03-16T02:54:39;101503.69;;;5.77;74.72
48053;BME280;33824;51.600;5.718;2023-03-16T02:57:05;101493.19;;;5.75;74.63
48053;BME280;33824;51.600;5.718;2023-03-16T02:59:31;101489.00;;;5.73;75.21
48053;BME280;33824;51.600;5.718;2023-03-16T03:01:57;101506.59;;;5.74;75.20
48053;BME280;33824;51.600;5.718;2023-03-16T03:04:22;101495.00;;;5.75;74.64
48053;BME280;33824;51.600;5.718;2023-03-16T03:06:50;101494.03;;;5.76;74.97
48053;BME280;33824;51.600;5.718;2023-03-16T03:09:16;101493.19;;;5.75;75.24
48053;BME280;33824;51.600;5.718;2023-03-16T03:11:43;101485.16;;;5.77;74.78
48053;BME280;33824;51.600;5.718;2023-03-16T03:14:09;101479.28;;;5.73;74.99
48053;BME280;33824;51.600;5.718;2023-03-16T03:16:34;101474.25;;;5.70;75.52
48053;BME280;33824;51.600;5.718;2023-03-16T03:19:00;101488.28;;;5.71;75.77
48053;BME280;33824;51.600;5.718;2023-03-16T03:21:26;101482.03;;;5.72;75.50
48053;BME280;33824;51.600;5.718;2023-03-16T03:23:51;101480.34;;;5.71;75.66
48053;BME280;33824;51.600;5.718;2023-03-16T03:26:17;101476.16;;;5.68;76.09
48053;BME280;33824;51.600;5.718;2023-03-16T03:28:43;101473.63;;;5.67;76.02
48053;BME280;33824;51.600;5.718;2023-03-16T03:31:13;101467.91;;;5.62;75.54
48053;BME280;33824;51.600;5.718;2023-03-16T03:33:39;101471.13;;;5.65;75.59
48053;BME280;33824;51.600;5.718;2023-03-16T03:36:05;101469.44;;;5.64;75.80
48053;BME280;33824;51.600;5.718;2023-03-16T03:38:30;101458.00;;;5.64;75.92
48053;BME280;33824;51.600;5.718;2023-03-16T03:40:56;101459.81;;;5.63;76.28
48053;BME280;33824;51.600;5.718;2023-03-16T03:43:24;101453.72;;;5.63;76.08
48053;BME280;33824;51.600;5.718;2023-03-16T03:46:00;101456.00;;;5.56;76.31
48053;BME280;33824;51.600;5.718;2023-03-16T03:48:26;101458.16;;;5.62;76.10
48053;BME280;33824;51.600;5.718;2023-03-16T03:50:52;101453.00;;;5.61;76.82
48053;BME280;33824;51.600;5.718;2023-03-16T03:53:18;101447.81;;;5.59;76.45
48053;BME280;33824;51.600;5.718;2023-03-16T03:55:44;101450.47;;;5.59;76.62
48053;BME280;33824;51.600;5.718;2023-03-16T03:58:10;101447.00;;;5.59;76.62
48053;BME280;33824;51.600;5.718;2023-03-16T04:00:38;101442.50;;;5.59;76.45
48053;BME280;33824;51.600;5.718;2023-03-16T04:03:03;101445.16;;;5.59;76.96
48053;BME280;33824;51.600;5.718;2023-03-16T04:05:29;101452.13;;;5.60;76.77
48053;BME280;33824;51.600;5.718;2023-03-16T04:07:55;101453.00;;;5.61;76.45
48053;BME280;33824;51.600;5.718;2023-03-16T04:10:23;101453.94;;;5.60;76.24
48053;BME280;33824;51.600;5.718;2023-03-16T04:12:49;101439.75;;;5.61;76.79
48053;BME280;33824;51.600;5.718;2023-03-16T04:15:15;101442.50;;;5.59;76.96
48053;BME280;33824;51.600;5.718;2023-03-16T04:17:41;101445.16;;;5.59;76.44
48053;BME280;33824;51.600;5.718;2023-03-16T04:20:07;101442.50;;;5.59;76.62
48053;BME280;33824;51.600;5.718;2023-03-16T04:22:39;101450.09;;;5.32;77.20
48053;BME280;33824;51.600;5.718;2023-03-16T04:25:04;101444.50;;;5.46;76.88
48053;BME280;33824;51.600;5.718;2023-03-16T04:27:30;101451.09;;;5.52;77.11
48053;BME280;33824;51.600;5.718;2023-03-16T04:30:05;101445.09;;;5.50;76.93
48053;BME280;33824;51.600;5.718;2023-03-16T04:32:32;101444.59;;;5.56;76.64
48053;BME280;33824;51.600;5.718;2023-03-16T04:34:58;101447.00;;;5.59;76.87
48053;BME280;33824;51.600;5.718;2023-03-16T04:37:24;101437.38;;;5.58;76.91
48053;BME280;33824;51.600;5.718;2023-03-16T04:39:49;101437.97;;;5.61;76.84
48053;BME280;33824;51.600;5.718;2023-03-16T04:42:15;101436.28;;;5.60;77.46
48053;BME280;33824;51.600;5.718;2023-03-16T04:44:40;101432.78;;;5.60;77.41
48053;BME280;33824;51.600;5.718;2023-03-16T04:47:14;101421.50;;;5.58;77.45
48053;BME280;33824;51.600;5.718;2023-03-16T04:49:40;101430.97;;;5.60;76.99
48053;BME280;33824;51.600;5.718;2023-03-16T04:52:06;101425.41;;;5.63;77.48
48053;BME280;33824;51.600;5.718;2023-03-16T04:54:32;101434.09;;;5.65;77.08
48053;BME280;33824;51.600;5.718;2023-03-16T04:56:58;101434.94;;;5.66;77.17
48053;BME280;33824;51.600;5.718;2023-03-16T04:59:26;101426.84;;;5.67;76.76
48053;BME280;33824;51.600;5.718;2023-03-16T05:01:51;101426.63;;;5.70;76.93
48053;BME280;33824;51.600;5.718;2023-03-16T05:04:18;101427.31;;;5.72;76.86
48053;BME280;33824;51.600;5.718;2023-03-16T05:06:44;101423.72;;;5.73;76.94
48053;BME280;33824;51.600;5.718;2023-03-16T05:09:10;101422.72;;;5.74;76.58
48053;BME280;33824;51.600;5.718;2023-03-16T05:11:36;101418.16;;;5.76;76.90
48053;BME280;33824;51.600;5.718;2023-03-16T05:14:02;101412.88;;;5.76;76.73
48053;BME280;33824;51.600;5.718;2023-03-16T05:16:28;101413.81;;;5.75;76.70
48053;BME280;33824;51.600;5.718;2023-03-16T05:18:58;101407.94;;;5.72;76.68
48053;BME280;33824;51.600;5.718;2023-03-16T05:21:23;101406.03;;;5.74;76.87
48053;BME280;33824;51.600;5.718;2023-03-16T05:23:49;101399.63;;;5.76;76.43
48053;BME280;33824;51.600;5.718;2023-03-16T05:26:16;101399.63;;;5.76;76.88
48053;BME280;33824;51.600;5.718;2023-03-16T05:28:43;101396.03;;;5.77;76.56
48053;BME280;33824;51.600;5.718;2023-03-16T05:31:09;101400.31;;;5.78;76.52
48053;BME280;33824;51.600;5.718;2023-03-16T05:33:35;101406.34;;;5.80;77.00
48053;BME280;33824;51.600;5.718;2023-03-16T05:36:00;101406.34;;;5.80;76.87
48053;BME280;33824;51.600;5.718;2023-03-16T05:38:28;101399.09;;;5.82;76.52
48053;BME280;33824;51.600;5.718;2023-03-16T05:40:54;101401.63;;;5.84;77.13
48053;BME280;33824;51.600;5.718;2023-03-16T05:43:20;101391.88;;;5.85;76.76
48053;BME280;33824;51.600;5.718;2023-03-16T05:45:46;101399.59;;;5.88;76.87
48053;BME280;33824;51.600;5.718;2023-03-16T05:48:12;101397.06;;;5.86;77.11
48053;BME280;33824;51.600;5.718;2023-03-16T05:50:40;101397.78;;;5.88;77.08
48053;BME280;33824;51.600;5.718;2023-03-16T05:53:06;101400.56;;;5.87;76.91
48053;BME280;33824;51.600;5.718;2023-03-16T05:55:33;101401.28;;;5.89;76.76
48053;BME280;33824;51.600;5.718;2023-03-16T05:57:59;101391.53;;;5.89;76.76
48053;BME280;33824;51.600;5.718;2023-03-16T06:00:25;101397.66;;;5.90;76.93
48053;BME280;33824;51.600;5.718;2023-03-16T06:02:52;101395.72;;;5.92;77.57
48053;BME280;33824;51.600;5.718;2023-03-16T06:05:19;101391.38;;;5.91;77.45
48053;BME280;33824;51.600;5.718;2023-03-16T06:07:47;101395.72;;;5.92;77.35
48053;BME280;33824;51.600;5.718;2023-03-16T06:10:13;101386.81;;;5.93;77.15
48053;BME280;33824;51.600;5.718;2023-03-16T06:12:39;101385.97;;;5.92;77.44
48053;BME280;33824;51.600;5.718;2023-03-16T06:15:06;101389.56;;;5.91;77.57
48053;BME280;33824;51.600;5.718;2023-03-16T06:17:33;101389.56;;;5.91;77.74
48053;BME280;33824;51.600;5.718;2023-03-16T06:19:59;101387.78;;;5.92;77.49
48053;BME280;33824;51.600;5.718;2023-03-16T06:22:24;101383.44;;;5.91;77.65
48053;BME280;33824;51.600;5.718;2023-03-16T06:24:51;101389.47;;;5.93;77.53
48053;BME280;33824;51.600;5.718;2023-03-16T06:27:17;101392.81;;;5.95;78.20
48053;BME280;33824;51.600;5.718;2023-03-16T06:29:45;101390.16;;;5.95;77.49
48053;BME280;33824;51.600;5.718;2023-03-16T06:32:11;101394.38;;;5.97;77.65
48053;BME280;33824;51.600;5.718;2023-03-16T06:34:37;101392.53;;;5.98;78.29
48053;BME280;33824;51.600;5.718;2023-03-16T06:37:03;101386.28;;;5.99;77.92
48053;BME280;33824;51.600;5.718;2023-03-16T06:39:29;101387.69;;;6.03;77.79
48053;BME280;33824;51.600;5.718;2023-03-16T06:41:55;101383.94;;;6.05;77.73
48053;BME280;33824;51.600;5.718;2023-03-16T06:44:21;101392.59;;;6.07;78.22
48053;BME280;33824;51.600;5.718;2023-03-16T06:46:46;101388.84;;;6.10;78.32
48053;BME280;33824;51.600;5.718;2023-03-16T06:49:13;101392.91;;;6.14;78.63
48053;BME280;33824;51.600;5.718;2023-03-16T06:51:39;101394.59;;;6.15;78.44
48053;BME280;33824;51.600;5.718;2023-03-16T06:54:06;101383.47;;;6.21;78.58
48053;BME280;33824;51.600;5.718;2023-03-16T06:56:32;101387.53;;;6.25;78.98
48053;BME280;33824;51.600;5.718;2023-03-16T06:58:57;101386.44;;;6.28;78.80
48053;BME280;33824;51.600;5.718;2023-03-16T07:01:23;101394.09;;;6.31;78.17
48053;BME280;33824;51.600;5.718;2023-03-16T07:03:48;101393.84;;;6.34;78.92
48053;BME280;33824;51.600;5.718;2023-03-16T07:06:15;101389.09;;;6.37;78.60
48053;BME280;33824;51.600;5.718;2023-03-16T07:08:40;101380.19;;;6.38;78.87
48053;BME280;33824;51.600;5.718;2023-03-16T07:11:07;101379.94;;;6.41;78.47
48053;BME280;33824;51.600;5.718;2023-03-16T07:13:33;101383.25;;;6.43;78.50
48053;BME280;33824;51.600;5.718;2023-03-16T07:16:00;101371.84;;;6.43;79.06
48053;BME280;33824;51.600;5.718;2023-03-16T07:18:26;101373.94;;;6.49;78.89
48053;BME280;33824;51.600;5.718;2023-03-16T07:20:52;101371.47;;;6.57;78.48
48053;BME280;33824;51.600;5.718;2023-03-16T07:23:18;101370.06;;;6.62;78.69
48053;BME280;33824;51.600;5.718;2023-03-16T07:25:44;101369.41;;;6.70;78.76
48053;BME280;33824;51.600;5.718;2023-03-16T07:28:10;101369.56;;;6.78;78.91
48053;BME280;33824;51.600;5.718;2023-03-16T07:30:37;101367.06;;;6.86;78.87
48053;BME280;33824;51.600;5.718;2023-03-16T07:33:03;101363.03;;;6.92;78.66
48053;BME280;33824;51.600;5.718;2023-03-16T07:35:30;101370.72;;;6.95;78.59
48053;BME280;33824;51.600;5.718;2023-03-16T07:37:55;101377.41;;;6.99;78.96
48053;BME280;33824;51.600;5.718;2023-03-16T07:40:21;101380.47;;;7.04;78.44
48053;BME280;33824;51.600;5.718;2023-03-16T07:42:47;101378.25;;;7.09;78.63
48053;BME280;33824;51.600;5.718;2023-03-16T07:45:14;101377.16;;;7.11;78.19
48053;BME280;33824;51.600;5.718;2023-03-16T07:47:42;101371.56;;;7.14;78.70
48053;BME280;33824;51.600;5.718;2023-03-16T07:50:09;101373.66;;;7.20;78.39
48053;BME280;33824;51.600;5.718;2023-03-16T07:52:35;101371.00;;;7.20;78.48
48053;BME280;33824;51.600;5.718;2023-03-16T07:55:02;101372.41;;;7.24;78.66
48053;BME280;33824;51.600;5.718;2023-03-16T07:57:28;101372.28;;;7.26;78.46
48053;BME280;33824;51.600;5.718;2023-03-16T07:59:54;101383.84;;;7.25;78.00
48053;BME280;33824;51.600;5.718;2023-03-16T08:02:19;101364.31;;;7.26;78.48
48053;BME280;33824;51.600;5.718;2023-03-16T08:04:46;101354.38;;;7.28;78.24
48053;BME280;33824;51.600;5.718;2023-03-16T08:07:13;101349.78;;;7.30;78.50
48053;BME280;33824;51.600;5.718;2023-03-16T08:09:40;101365.00;;;7.38;78.46
48053;BME280;33824;51.600;5.718;2023-03-16T08:12:06;101363.16;;;7.38;78.41
48053;BME280;33824;51.600;5.718;2023-03-16T08:14:33;101359.81;;;7.46;78.75
48053;BME280;33824;51.600;5.718;2023-03-16T08:17:04;101365.28;;;7.44;78.35
48053;BME280;33824;51.600;5.718;2023-03-16T08:19:30;101359.38;;;7.50;78.64
48053;BME280;33824;51.600;5.718;2023-03-16T08:21:56;101362.59;;;7.54;78.66
48053;BME280;33824;51.600;5.718;2023-03-16T08:24:26;101357.28;;;7.54;78.79
48053;BME280;33824;51.600;5.718;2023-03-16T08:26:52;101361.50;;;7.56;78.23
48053;BME280;33824;51.600;5.718;2023-03-16T08:29:18;101363.31;;;7.56;78.38
48053;BME280;33824;51.600;5.718;2023-03-16T08:31:44;101354.63;;;7.63;78.24
48053;BME280;33824;51.600;5.718;2023-03-16T08:34:10;101358.25;;;7.72;77.97
48053;BME280;33824;51.600;5.718;2023-03-16T08:36:36;101359.06;;;7.82;78.07
48053;BME280;33824;51.600;5.718;2023-03-16T08:39:05;101352.06;;;7.91;78.19
48053;BME280;33824;51.600;5.718;2023-03-16T08:41:31;101352.19;;;7.99;78.08
48053;BME280;33824;51.600;5.718;2023-03-16T08:43:58;101350.78;;;7.95;77.24
48053;BME280;33824;51.600;5.718;2023-03-16T08:46:24;101345.31;;;7.96;77.00
48053;BME280;33824;51.600;5.718;2023-03-16T08:48:50;101346.88;;;7.99;77.63
48053;BME280;33824;51.600;5.718;2023-03-16T08:51:17;101337.75;;;8.01;77.42
48053;BME280;33824;51.600;5.718;2023-03-16T08:53:43;101355.31;;;8.12;77.13
48053;BME280;33824;51.600;5.718;2023-03-16T08:56:11;101343.97;;;8.19;77.06
48053;BME280;33824;51.600;5.718;2023-03-16T08:58:40;101353.03;;;8.27;76.76
48053;BME280;33824;51.600;5.718;2023-03-16T09:01:10;101353.88;;;8.27;76.51
48053;BME280;33824;51.600;5.718;2023-03-16T09:03:37;101345.31;;;8.33;76.52
48053;BME280;33824;51.600;5.718;2023-03-16T09:06:08;101345.72;;;8.38;75.99
48053;BME280;33824;51.600;5.718;2023-03-16T09:08:35;101341.06;;;8.50;76.15
48053;BME280;33824;51.600;5.718;2023-03-16T09:11:11;101340.09;;;8.51;75.91
48053;BME280;33824;51.600;5.718;2023-03-16T09:13:39;101335.94;;;8.66;75.39
48053;BME280;33824;51.600;5.718;2023-03-16T09:16:06;101336.16;;;8.73;75.66
48053;BME280;33824;51.600;5.718;2023-03-16T09:18:33;101319.38;;;8.72;74.88
48053;BME280;33824;51.600;5.718;2023-03-16T09:21:01;101321.19;;;8.72;74.77
48053;BME280;33824;51.600;5.718;2023-03-16T09:23:28;101330.00;;;8.72;74.44
48053;BME280;33824;51.600;5.718;2023-03-16T09:25:58;101320.91;;;8.75;74.47
48053;BME280;33824;51.600;5.718;2023-03-16T09:28:26;101328.13;;;8.82;74.84
48053;BME280;33824;51.600;5.718;2023-03-16T09:30:53;101310.59;;;8.89;74.30
48053;BME280;33824;51.600;5.718;2023-03-16T09:33:20;101329.72;;;8.93;73.82
48053;BME280;33824;51.600;5.718;2023-03-16T09:35:46;101326.97;;;9.02;73.49
48053;BME280;33824;51.600;5.718;2023-03-16T09:38:12;101316.09;;;9.13;73.76
48053;BME280;33824;51.600;5.718;2023-03-16T09:40:38;101319.38;;;9.25;73.24
48053;BME280;33824;51.600;5.718;2023-03-16T09:43:15;101316.03;;;9.23;71.74
48053;BME280;33824;51.600;5.718;2023-03-16T09:48:36;101307.69;;;9.61;71.39
48053;BME280;33824;51.600;5.718;2023-03-16T09:54:01;101310.38;;;9.95;70.34
48053;BME280;33824;51.600;5.718;2023-03-16T09:56:39;101299.53;;;9.97;69.50
48053;BME280;33824;51.600;5.718;2023-03-16T09:59:13;101308.09;;;10.00;68.81
48053;BME280;33824;51.600;5.718;2023-03-16T10:05:04;101298.34;;;10.17;67.21
48053;BME280;33824;51.600;5.718;2023-03-16T10:07:57;101302.50;;;10.20;67.82
48053;BME280;33824;51.600;5.718;2023-03-16T10:11:04;101280.94;;;10.31;66.09
48053;BME280;33824;51.600;5.718;2023-03-16T10:13:40;101288.28;;;10.45;67.42
48053;BME280;33824;51.600;5.718;2023-03-16T10:16:11;101285.16;;;10.49;66.79
48053;BME280;33824;51.600;5.718;2023-03-16T10:18:42;101286.63;;;10.44;67.15
48053;BME280;33824;51.600;5.718;2023-03-16T10:21:15;101276.81;;;10.52;66.66
48053;BME280;33824;51.600;5.718;2023-03-16T10:23:45;101271.69;;;10.75;66.16
48053;BME280;33824;51.600;5.718;2023-03-16T10:26:18;101261.34;;;10.88;65.33
48053;BME280;33824;51.600;5.718;2023-03-16T10:28:47;101262.19;;;11.21;66.25
48053;BME280;33824;51.600;5.718;2023-03-16T10:31:15;101254.69;;;11.33;64.62
48053;BME280;33824;51.600;5.718;2023-03-16T10:33:42;101266.34;;;11.40;64.25
48053;BME280;33824;51.600;5.718;2023-03-16T10:38:51;101267.13;;;11.56;64.63
48053;BME280;33824;51.600;5.718;2023-03-16T10:41:23;101262.47;;;11.75;63.59
48053;BME280;33824;51.600;5.718;2023-03-16T10:43:56;101265.00;;;11.60;62.28
48053;BME280;33824;51.600;5.718;2023-03-16T10:46:25;101259.47;;;11.78;62.36
48053;BME280;33824;51.600;5.718;2023-03-16T10:48:59;101254.44;;;11.67;59.54
48053;BME280;33824;51.600;5.718;2023-03-16T10:51:31;101256.78;;;11.78;60.62
48053;BME280;33824;51.600;5.718;2023-03-16T10:54:07;101251.38;;;12.02;62.39
48053;BME280;33824;51.600;5.718;2023-03-16T10:56:35;101242.56;;;12.24;61.84
48053;BME280;33824;51.600;5.718;2023-03-16T10:59:12;101245.13;;;12.40;61.19
48053;BME280;33824;51.600;5.718;2023-03-16T11:01:43;101249.28;;;12.74;61.53
48053;BME280;33824;51.600;5.718;2023-03-16T11:04:14;101232.19;;;12.75;59.66
48053;BME280;33824;51.600;5.718;2023-03-16T11:07:14;101235.97;;;12.88;59.82
48053;BME280;33824;51.600;5.718;2023-03-16T11:09:40;101232.28;;;13.12;60.29
48053;BME280;33824;51.600;5.718;2023-03-16T11:12:28;101236.44;;;12.92;58.29
48053;BME280;33824;51.600;5.718;2023-03-16T11:15:01;101224.78;;;12.85;57.25
48053;BME280;33824;51.600;5.718;2023-03-16T11:17:46;101216.34;;;12.73;56.93
48053;BME280;33824;51.600;5.718;2023-03-16T11:20:22;101209.44;;;12.79;57.97
48053;BME280;33824;51.600;5.718;2023-03-16T11:22:51;101205.75;;;12.80;57.87
48053;BME280;33824;51.600;5.718;2023-03-16T11:25:27;101206.81;;;12.71;56.39
48053;BME280;33824;51.600;5.718;2023-03-16T11:28:11;101205.16;;;12.70;55.60
48053;BME280;33824;51.600;5.718;2023-03-16T11:30:48;101202.00;;;12.89;56.37
48053;BME280;33824;51.600;5.718;2023-03-16T11:33:20;101178.78;;;13.04;56.17
48053;BME280;33824;51.600;5.718;2023-03-16T11:36:16;101183.97;;;12.83;54.01
48053;BME280;33824;51.600;5.718;2023-03-16T11:41:35;101175.72;;;12.92;53.82
48053;BME280;33824;51.600;5.718;2023-03-16T11:44:20;101180.38;;;13.13;56.44
48053;BME280;33824;51.600;5.718;2023-03-16T11:49:37;101164.91;;;13.23;54.09
48053;BME280;33824;51.600;5.718;2023-03-16T11:52:23;101165.16;;;13.14;54.39
48053;BME280;33824;51.600;5.718;2023-03-16T11:55:21;101168.22;;;13.25;55.57
48053;BME280;33824;51.600;5.718;2023-03-16T12:05:55;101158.44;;;13.47;53.50
48053;BME280;33824;51.600;5.718;2023-03-16T12:08:32;101148.75;;;13.61;54.20
48053;BME280;33824;51.600;5.718;2023-03-16T12:11:11;101143.91;;;13.71;54.15
48053;BME280;33824;51.600;5.718;2023-03-16T12:13:55;101146.50;;;13.79;54.61
48053;BME280;33824;51.600;5.718;2023-03-16T12:16:34;101151.81;;;13.93;53.94
48053;BME280;33824;51.600;5.718;2023-03-16T12:19:11;101137.63;;;13.78;52.24
48053;BME280;33824;51.600;5.718;2023-03-16T12:21:44;101133.66;;;13.60;52.47
48053;BME280;33824;51.600;5.718;2023-03-16T12:24:20;101125.00;;;13.43;53.69
48053;BME280;33824;51.600;5.718;2023-03-16T12:26:48;101123.31;;;13.71;52.50
48053;BME280;33824;51.600;5.718;2023-03-16T12:29:26;101117.06;;;13.85;52.69
48053;BME280;33824;51.600;5.718;2023-03-16T12:32:04;101113.88;;;14.11;51.28
48053;BME280;33824;51.600;5.718;2023-03-16T12:37:17;101093.56;;;14.38;51.47
48053;BME280;33824;51.600;5.718;2023-03-16T12:39:55;101099.09;;;14.36;52.66
48053;BME280;33824;51.600;5.718;2023-03-16T12:42:41;101094.25;;;14.32;50.11
48053;BME280;33824;51.600;5.718;2023-03-16T12:45:25;101086.88;;;14.34;49.69
48053;BME280;33824;51.600;5.718;2023-03-16T12:48:18;101083.25;;;14.42;48.84
48053;BME280;33824;51.600;5.718;2023-03-16T12:50:49;101069.44;;;14.45;50.03
48053;BME280;33824;51.600;5.718;2023-03-16T12:56:17;101059.16;;;14.48;49.21
48053;BME280;33824;51.600;5.718;2023-03-16T12:58:46;101061.03;;;14.75;50.60
48053;BME280;33824;51.600;5.718;2023-03-16T13:01:15;101054.53;;;14.91;49.32
48053;BME280;33824;51.600;5.718;2023-03-16T13:03:49;101041.31;;;14.96;48.64
48053;BME280;33824;51.600;5.718;2023-03-16T13:06:22;101039.56;;;15.10;49.56
48053;BME280;33824;51.600;5.718;2023-03-16T13:08:54;101032.78;;;15.20;48.43
48053;BME280;33824;51.600;5.718;2023-03-16T13:11:20;101025.44;;;14.95;47.51
48053;BME280;33824;51.600;5.718;2023-03-16T13:16:28;101022.47;;;15.24;48.58
48053;BME280;33824;51.600;5.718;2023-03-16T13:18:55;101025.34;;;15.22;47.58
48053;BME280;33824;51.600;5.718;2023-03-16T13:21:34;101018.69;;;15.12;44.46
48053;BME280;33824;51.600;5.718;2023-03-16T13:24:27;101011.06;;;15.22;46.64
48053;BME280;33824;51.600;5.718;2023-03-16T13:27:02;101013.91;;;15.48;46.76
48053;BME280;33824;51.600;5.718;2023-03-16T13:29:31;101003.38;;;15.53;46.85
48053;BME280;33824;51.600;5.718;2023-03-16T13:31:58;101011.22;;;15.48;46.21
48053;BME280;33824;51.600;5.718;2023-03-16T13:34:31;101019.72;;;15.52;45.91
48053;BME280;33824;51.600;5.718;2023-03-16T13:36:59;101007.78;;;15.80;46.97
48053;BME280;33824;51.600;5.718;2023-03-16T13:39:28;101009.03;;;15.78;46.84
48053;BME280;33824;51.600;5.718;2023-03-16T13:42:19;100995.16;;;15.68;45.16
48053;BME280;33824;51.600;5.718;2023-03-16T13:44:45;100997.03;;;15.74;45.22
48053;BME280;33824;51.600;5.718;2023-03-16T13:47:16;100992.50;;;15.88;45.23
48053;BME280;33824;51.600;5.718;2023-03-16T13:49:48;100982.34;;;15.83;45.92
48053;BME280;33824;51.600;5.718;2023-03-16T13:52:31;100977.00;;;15.90;45.16